sensor_id;sensor_type;location;lat;lon;timestamp;P1;durP1;ratioP1;P2;durP2;ratioP2
8626;SDS011;4351;51.422;6.794;2023-03-23T00:02:22;6.93;;;2.30;;
8626;SDS011;4351;51.422;6.794;2023-03-23T00:04:53;6.17;;;2.50;;
8626;SDS011;4351;51.422;6.794;2023-03-23T00:07:22;5.37;;;2.30;;
8626;SDS011;4351;51.422;6.794;2023-03-23T00:09:52;4.57;;;2.20;;
8626;SDS011;4351;51.422;6.794;2023-03-23T00:12:20;3.37;;;2.40;;
8626;SDS011;4351;51.422;6.794;2023-03-23T00:14:58;4.80;;;2.27;;
8626;SDS011;4351;51.422;6.794;2023-03-23T00:17:26;5.93;;;2.87;;
8626;SDS011;4351;51.422;6.794;2023-03-23T00:19:53;3.63;;;2.33;;
8626;SDS011;4351;51.422;6.794;2023-03-23T00:22:21;7.43;;;2.33;;
8626;SDS011;4351;51.422;6.794;2023-03-23T00:24:50;5.20;;;2.20;;
8626;SDS011;4351;51.422;6.794;2023-03-23T00:27:17;4.63;;;2.10;;
8626;SDS011;4351;51.422;6.794;2023-03-23T00:29:46;4.00;;;2.37;;
8626;SDS011;4351;51.422;6.794;2023-03-23T00:32:18;2.60;;;2.20;;
8626;SDS011;4351;51.422;6.794;2023-03-23T00:34:53;4.43;;;2.10;;
8626;SDS011;4351;51.422;6.794;2023-03-23T00:37:23;3.47;;;2.20;;
8626;SDS011;4351;51.422;6.794;2023-03-23T00:39:49;7.23;;;2.20;;
8626;SDS011;4351;51.422;6.794;2023-03-23T00:42:17;4.90;;;2.50;;
8626;SDS011;4351;51.422;6.794;2023-03-23T00:44:44;4.93;;;2.40;;
8626;SDS011;4351;51.422;6.794;2023-03-23T00:47:11;4.73;;;2.13;;
8626;SDS011;4351;51.422;6.794;2023-03-23T00:49:38;3.17;;;2.30;;
8626;SDS011;4351;51.422;6.794;2023-03-23T00:52:06;4.67;;;2.43;;
8626;SDS011;4351;51.422;6.794;2023-03-23T00:54:34;4.97;;;2.40;;
8626;SDS011;4351;51.422;6.794;2023-03-23T00:57:03;6.13;;;2.77;;
8626;SDS011;4351;51.422;6.794;2023-03-23T00:59:30;3.67;;;2.33;;
8626;SDS011;4351;51.422;6.794;2023-03-23T01:01:57;4.20;;;2.27;;
8626;SDS011;4351;51.422;6.794;2023-03-23T01:04:24;2.63;;;2.20;;
8626;SDS011;4351;51.422;6.794;2023-03-23T01:06:54;5.07;;;2.67;;
8626;SDS011;4351;51.422;6.794;2023-03-23T01:09:21;4.20;;;2.80;;
8626;SDS011;4351;51.422;6.794;2023-03-23T01:11:50;3.63;;;2.33;;
8626;SDS011;4351;51.422;6.794;2023-03-23T01:14:20;3.37;;;2.33;;
8626;SDS011;4351;51.422;6.794;2023-03-23T01:16:49;4.70;;;2.43;;
8626;SDS011;4351;51.422;6.794;2023-03-23T01:19:16;2.50;;;2.10;;
8626;SDS011;4351;51.422;6.794;2023-03-23T01:21:42;3.43;;;2.40;;
8626;SDS011;4351;51.422;6.794;2023-03-23T01:24:09;3.67;;;2.40;;
8626;SDS011;4351;51.422;6.794;2023-03-23T01:26:36;4.87;;;2.50;;
8626;SDS011;4351;51.422;6.794;2023-03-23T01:29:04;4.90;;;2.10;;
8626;SDS011;4351;51.422;6.794;2023-03-23T01:31:31;3.13;;;2.10;;
8626;SDS011;4351;51.422;6.794;2023-03-23T01:33:59;2.80;;;2.03;;
8626;SDS011;4351;51.422;6.794;2023-03-23T01:36:27;3.83;;;2.70;;
8626;SDS011;4351;51.422;6.794;2023-03-23T01:38:59;3.10;;;2.37;;
8626;SDS011;4351;51.422;6.794;2023-03-23T01:41:29;5.03;;;2.10;;
8626;SDS011;4351;51.422;6.794;2023-03-23T01:43:59;3.80;;;2.20;;
8626;SDS011;4351;51.422;6.794;2023-03-23T01:46:35;5.43;;;2.20;;
8626;SDS011;4351;51.422;6.794;2023-03-23T01:49:03;4.50;;;2.27;;
8626;SDS011;4351;51.422;6.794;2023-03-23T01:51:34;4.17;;;2.33;;
8626;SDS011;4351;51.422;6.794;2023-03-23T01:54:04;3.93;;;2.43;;
8626;SDS011;4351;51.422;6.794;2023-03-23T01:56:35;2.70;;;2.00;;
8626;SDS011;4351;51.422;6.794;2023-03-23T01:59:06;4.87;;;2.17;;
8626;SDS011;4351;51.422;6.794;2023-03-23T02:01:35;3.00;;;2.23;;
8626;SDS011;4351;51.422;6.794;2023-03-23T02:04:08;3.70;;;2.30;;
8626;SDS011;4351;51.422;6.794;2023-03-23T02:06:36;4.53;;;2.20;;
8626;SDS011;4351;51.422;6.794;2023-03-23T02:09:13;2.73;;;2.10;;
8626;SDS011;4351;51.422;6.794;2023-03-23T02:11:43;5.33;;;2.33;;
8626;SDS011;4351;51.422;6.794;2023-03-23T02:14:11;4.17;;;2.50;;
8626;SDS011;4351;51.422;6.794;2023-03-23T02:16:42;4.10;;;2.00;;
8626;SDS011;4351;51.422;6.794;2023-03-23T02:19:29;3.03;;;2.43;;
8626;SDS011;4351;51.422;6.794;2023-03-23T02:22:22;3.23;;;2.23;;
8626;SDS011;4351;51.422;6.794;2023-03-23T02:25:19;3.37;;;2.23;;
8626;SDS011;4351;51.422;6.794;2023-03-23T02:31:17;3.90;;;2.23;;
8626;SDS011;4351;51.422;6.794;2023-03-23T02:33:56;4.33;;;2.60;;
8626;SDS011;4351;51.422;6.794;2023-03-23T02:36:26;5.83;;;2.80;;
8626;SDS011;4351;51.422;6.794;2023-03-23T02:39:02;4.27;;;2.53;;
8626;SDS011;4351;51.422;6.794;2023-03-23T02:41:36;4.87;;;2.43;;
8626;SDS011;4351;51.422;6.794;2023-03-23T02:44:07;4.90;;;2.70;;
8626;SDS011;4351;51.422;6.794;2023-03-23T02:46:36;3.73;;;2.37;;
8626;SDS011;4351;51.422;6.794;2023-03-23T02:49:06;4.10;;;2.43;;
8626;SDS011;4351;51.422;6.794;2023-03-23T02:51:36;3.70;;;2.37;;
8626;SDS011;4351;51.422;6.794;2023-03-23T02:54:04;4.40;;;2.60;;
8626;SDS011;4351;51.422;6.794;2023-03-23T02:56:33;3.90;;;2.30;;
8626;SDS011;4351;51.422;6.794;2023-03-23T02:59:06;4.00;;;2.60;;
8626;SDS011;4351;51.422;6.794;2023-03-23T03:01:48;3.67;;;2.30;;
8626;SDS011;4351;51.422;6.794;2023-03-23T03:04:22;3.90;;;2.33;;
8626;SDS011;4351;51.422;6.794;2023-03-23T03:06:55;6.00;;;2.67;;
8626;SDS011;4351;51.422;6.794;2023-03-23T03:09:45;5.07;;;2.70;;
8626;SDS011;4351;51.422;6.794;2023-03-23T03:12:15;3.63;;;2.20;;
8626;SDS011;4351;51.422;6.794;2023-03-23T03:14:51;3.03;;;2.27;;
8626;SDS011;4351;51.422;6.794;2023-03-23T03:17:25;4.77;;;2.33;;
8626;SDS011;4351;51.422;6.794;2023-03-23T03:19:56;3.30;;;2.27;;
8626;SDS011;4351;51.422;6.794;2023-03-23T03:22:29;3.50;;;2.23;;
8626;SDS011;4351;51.422;6.794;2023-03-23T03:24:57;4.37;;;1.90;;
8626;SDS011;4351;51.422;6.794;2023-03-23T03:27:25;3.57;;;2.10;;
8626;SDS011;4351;51.422;6.794;2023-03-23T03:30:05;2.87;;;1.90;;
8626;SDS011;4351;51.422;6.794;2023-03-23T03:32:36;3.37;;;1.97;;
8626;SDS011;4351;51.422;6.794;2023-03-23T03:35:08;3.43;;;2.10;;
8626;SDS011;4351;51.422;6.794;2023-03-23T03:37:38;2.70;;;1.53;;
8626;SDS011;4351;51.422;6.794;2023-03-23T03:40:08;3.10;;;1.80;;
8626;SDS011;4351;51.422;6.794;2023-03-23T03:42:39;3.97;;;1.90;;
8626;SDS011;4351;51.422;6.794;2023-03-23T03:45:09;2.80;;;1.73;;
8626;SDS011;4351;51.422;6.794;2023-03-23T03:47:37;2.50;;;1.93;;
8626;SDS011;4351;51.422;6.794;2023-03-23T03:50:04;3.07;;;1.80;;
8626;SDS011;4351;51.422;6.794;2023-03-23T03:52:34;3.33;;;1.70;;
8626;SDS011;4351;51.422;6.794;2023-03-23T03:55:01;4.23;;;1.87;;
8626;SDS011;4351;51.422;6.794;2023-03-23T03:57:31;2.43;;;1.70;;
8626;SDS011;4351;51.422;6.794;2023-03-23T04:00:17;3.47;;;1.90;;
8626;SDS011;4351;51.422;6.794;2023-03-23T04:02:48;3.00;;;1.83;;
8626;SDS011;4351;51.422;6.794;2023-03-23T04:05:25;3.60;;;1.90;;
8626;SDS011;4351;51.422;6.794;2023-03-23T04:07:55;3.17;;;1.97;;
8626;SDS011;4351;51.422;6.794;2023-03-23T04:10:28;4.70;;;1.90;;
8626;SDS011;4351;51.422;6.794;2023-03-23T04:12:56;2.87;;;1.93;;
8626;SDS011;4351;51.422;6.794;2023-03-23T04:15:32;3.07;;;1.63;;
8626;SDS011;4351;51.422;6.794;2023-03-23T04:18:00;3.07;;;1.80;;
8626;SDS011;4351;51.422;6.794;2023-03-23T04:20:29;4.43;;;1.70;;
8626;SDS011;4351;51.422;6.794;2023-03-23T04:22:57;2.27;;;1.73;;
8626;SDS011;4351;51.422;6.794;2023-03-23T04:25:26;3.47;;;1.93;;
8626;SDS011;4351;51.422;6.794;2023-03-23T04:27:53;3.30;;;1.80;;
8626;SDS011;4351;51.422;6.794;2023-03-23T04:30:26;3.30;;;1.73;;
8626;SDS011;4351;51.422;6.794;2023-03-23T04:33:00;2.97;;;1.80;;
8626;SDS011;4351;51.422;6.794;2023-03-23T04:35:28;3.13;;;1.87;;
8626;SDS011;4351;51.422;6.794;2023-03-23T04:38:09;2.63;;;1.53;;
8626;SDS011;4351;51.422;6.794;2023-03-23T04:40:37;4.40;;;1.80;;
8626;SDS011;4351;51.422;6.794;2023-03-23T04:43:22;3.43;;;1.70;;
8626;SDS011;4351;51.422;6.794;2023-03-23T04:46:10;3.00;;;1.83;;
8626;SDS011;4351;51.422;6.794;2023-03-23T04:48:37;3.03;;;1.87;;
8626;SDS011;4351;51.422;6.794;2023-03-23T04:51:18;3.87;;;2.10;;
8626;SDS011;4351;51.422;6.794;2023-03-23T04:53:50;3.43;;;1.83;;
8626;SDS011;4351;51.422;6.794;2023-03-23T04:56:17;5.43;;;1.90;;
8626;SDS011;4351;51.422;6.794;2023-03-23T04:58:45;2.50;;;1.90;;
8626;SDS011;4351;51.422;6.794;2023-03-23T05:01:26;2.90;;;2.00;;
8626;SDS011;4351;51.422;6.794;2023-03-23T05:04:05;3.00;;;1.80;;
8626;SDS011;4351;51.422;6.794;2023-03-23T05:06:33;3.60;;;2.13;;
8626;SDS011;4351;51.422;6.794;2023-03-23T05:09:11;3.43;;;2.00;;
8626;SDS011;4351;51.422;6.794;2023-03-23T05:11:38;5.53;;;2.50;;
8626;SDS011;4351;51.422;6.794;2023-03-23T05:14:05;2.50;;;1.80;;
8626;SDS011;4351;51.422;6.794;2023-03-23T05:16:32;3.50;;;2.20;;
8626;SDS011;4351;51.422;6.794;2023-03-23T05:19:02;3.43;;;2.23;;
8626;SDS011;4351;51.422;6.794;2023-03-23T05:21:31;3.43;;;2.17;;
8626;SDS011;4351;51.422;6.794;2023-03-23T05:23:59;3.47;;;2.30;;
8626;SDS011;4351;51.422;6.794;2023-03-23T05:26:29;3.87;;;2.00;;
8626;SDS011;4351;51.422;6.794;2023-03-23T05:29:03;3.77;;;2.20;;
8626;SDS011;4351;51.422;6.794;2023-03-23T05:31:43;2.20;;;1.97;;
8626;SDS011;4351;51.422;6.794;2023-03-23T05:34:10;3.77;;;2.40;;
8626;SDS011;4351;51.422;6.794;2023-03-23T05:36:46;3.83;;;2.57;;
8626;SDS011;4351;51.422;6.794;2023-03-23T05:39:31;3.50;;;2.20;;
8626;SDS011;4351;51.422;6.794;2023-03-23T05:42:26;4.00;;;2.13;;
8626;SDS011;4351;51.422;6.794;2023-03-23T05:45:12;4.23;;;2.43;;
8626;SDS011;4351;51.422;6.794;2023-03-23T05:47:40;3.97;;;2.13;;
8626;SDS011;4351;51.422;6.794;2023-03-23T05:50:12;5.43;;;2.63;;
8626;SDS011;4351;51.422;6.794;2023-03-23T05:52:39;3.30;;;2.40;;
8626;SDS011;4351;51.422;6.794;2023-03-23T05:55:09;5.73;;;2.50;;
8626;SDS011;4351;51.422;6.794;2023-03-23T05:57:40;3.93;;;2.30;;
8626;SDS011;4351;51.422;6.794;2023-03-23T06:00:17;3.57;;;2.33;;
8626;SDS011;4351;51.422;6.794;2023-03-23T06:02:54;2.97;;;2.20;;
8626;SDS011;4351;51.422;6.794;2023-03-23T06:05:28;3.57;;;2.13;;
8626;SDS011;4351;51.422;6.794;2023-03-23T06:07:56;3.23;;;2.43;;
8626;SDS011;4351;51.422;6.794;2023-03-23T06:10:23;3.63;;;2.40;;
8626;SDS011;4351;51.422;6.794;2023-03-23T06:12:56;6.00;;;2.20;;
8626;SDS011;4351;51.422;6.794;2023-03-23T06:15:31;5.83;;;2.67;;
8626;SDS011;4351;51.422;6.794;2023-03-23T06:17:58;3.50;;;2.60;;
8626;SDS011;4351;51.422;6.794;2023-03-23T06:20:32;3.33;;;2.20;;
8626;SDS011;4351;51.422;6.794;2023-03-23T06:23:09;5.07;;;2.73;;
8626;SDS011;4351;51.422;6.794;2023-03-23T06:25:37;4.90;;;2.57;;
8626;SDS011;4351;51.422;6.794;2023-03-23T06:28:07;5.27;;;2.50;;
8626;SDS011;4351;51.422;6.794;2023-03-23T06:30:37;4.67;;;2.40;;
8626;SDS011;4351;51.422;6.794;2023-03-23T06:33:05;3.60;;;2.43;;
8626;SDS011;4351;51.422;6.794;2023-03-23T06:35:54;3.60;;;2.03;;
8626;SDS011;4351;51.422;6.794;2023-03-23T06:38:49;3.77;;;2.50;;
8626;SDS011;4351;51.422;6.794;2023-03-23T06:41:22;3.73;;;2.17;;
8626;SDS011;4351;51.422;6.794;2023-03-23T06:43:52;4.73;;;2.40;;
8626;SDS011;4351;51.422;6.794;2023-03-23T06:46:26;3.83;;;2.27;;
8626;SDS011;4351;51.422;6.794;2023-03-23T06:48:53;4.07;;;2.53;;
8626;SDS011;4351;51.422;6.794;2023-03-23T06:51:30;4.80;;;2.40;;
8626;SDS011;4351;51.422;6.794;2023-03-23T06:53:56;3.83;;;2.30;;
8626;SDS011;4351;51.422;6.794;2023-03-23T06:56:27;4.80;;;2.60;;
8626;SDS011;4351;51.422;6.794;2023-03-23T06:58:57;5.40;;;2.10;;
8626;SDS011;4351;51.422;6.794;2023-03-23T07:01:24;3.10;;;2.30;;
8626;SDS011;4351;51.422;6.794;2023-03-23T07:03:57;7.37;;;2.57;;
8626;SDS011;4351;51.422;6.794;2023-03-23T07:06:36;5.20;;;2.20;;
8626;SDS011;4351;51.422;6.794;2023-03-23T07:09:05;5.00;;;2.17;;
8626;SDS011;4351;51.422;6.794;2023-03-23T07:11:32;6.17;;;2.33;;
8626;SDS011;4351;51.422;6.794;2023-03-23T07:14:07;3.63;;;2.20;;
8626;SDS011;4351;51.422;6.794;2023-03-23T07:16:34;4.03;;;2.00;;
8626;SDS011;4351;51.422;6.794;2023-03-23T07:19:03;4.00;;;2.30;;
8626;SDS011;4351;51.422;6.794;2023-03-23T07:21:30;3.93;;;2.00;;
8626;SDS011;4351;51.422;6.794;2023-03-23T07:23:57;4.77;;;2.00;;
8626;SDS011;4351;51.422;6.794;2023-03-23T07:26:37;6.97;;;2.27;;
8626;SDS011;4351;51.422;6.794;2023-03-23T07:29:04;4.43;;;2.00;;
8626;SDS011;4351;51.422;6.794;2023-03-23T07:31:39;5.30;;;1.90;;
8626;SDS011;4351;51.422;6.794;2023-03-23T07:34:08;5.77;;;2.07;;
8626;SDS011;4351;51.422;6.794;2023-03-23T07:36:43;3.57;;;1.80;;
8626;SDS011;4351;51.422;6.794;2023-03-23T07:39:10;4.77;;;2.00;;
8626;SDS011;4351;51.422;6.794;2023-03-23T07:41:38;3.50;;;2.00;;
8626;SDS011;4351;51.422;6.794;2023-03-23T07:44:16;4.60;;;1.87;;
8626;SDS011;4351;51.422;6.794;2023-03-23T07:46:43;4.93;;;1.77;;
8626;SDS011;4351;51.422;6.794;2023-03-23T07:49:15;4.13;;;1.93;;
8626;SDS011;4351;51.422;6.794;2023-03-23T07:51:54;6.20;;;1.97;;
8626;SDS011;4351;51.422;6.794;2023-03-23T07:54:22;3.17;;;2.10;;
8626;SDS011;4351;51.422;6.794;2023-03-23T07:56:57;5.83;;;1.70;;
8626;SDS011;4351;51.422;6.794;2023-03-23T07:59:28;4.10;;;1.90;;
8626;SDS011;4351;51.422;6.794;2023-03-23T08:01:57;6.00;;;2.10;;
8626;SDS011;4351;51.422;6.794;2023-03-23T08:04:41;3.77;;;1.60;;
8626;SDS011;4351;51.422;6.794;2023-03-23T08:07:10;3.80;;;2.00;;
8626;SDS011;4351;51.422;6.794;2023-03-23T08:09:56;3.70;;;1.70;;
8626;SDS011;4351;51.422;6.794;2023-03-23T08:12:51;3.17;;;1.53;;
8626;SDS011;4351;51.422;6.794;2023-03-23T08:15:38;7.37;;;2.00;;
8626;SDS011;4351;51.422;6.794;2023-03-23T08:18:40;3.73;;;1.60;;
8626;SDS011;4351;51.422;6.794;2023-03-23T08:21:19;5.70;;;1.90;;
8626;SDS011;4351;51.422;6.794;2023-03-23T08:24:06;4.43;;;1.70;;
8626;SDS011;4351;51.422;6.794;2023-03-23T08:26:44;3.37;;;1.40;;
8626;SDS011;4351;51.422;6.794;2023-03-23T08:29:30;6.87;;;2.20;;
8626;SDS011;4351;51.422;6.794;2023-03-23T08:32:18;3.00;;;1.67;;
8626;SDS011;4351;51.422;6.794;2023-03-23T08:35:02;6.80;;;1.73;;
8626;SDS011;4351;51.422;6.794;2023-03-23T08:37:59;5.27;;;1.97;;
8626;SDS011;4351;51.422;6.794;2023-03-23T08:40:46;5.37;;;1.70;;
8626;SDS011;4351;51.422;6.794;2023-03-23T08:43:29;4.73;;;1.80;;
8626;SDS011;4351;51.422;6.794;2023-03-23T08:46:15;7.43;;;1.73;;
8626;SDS011;4351;51.422;6.794;2023-03-23T08:49:04;4.97;;;1.80;;
8626;SDS011;4351;51.422;6.794;2023-03-23T08:52:01;6.07;;;1.67;;
8626;SDS011;4351;51.422;6.794;2023-03-23T08:54:44;7.47;;;2.07;;
8626;SDS011;4351;51.422;6.794;2023-03-23T08:57:21;6.27;;;2.20;;
8626;SDS011;4351;51.422;6.794;2023-03-23T09:00:07;9.03;;;1.93;;
8626;SDS011;4351;51.422;6.794;2023-03-23T09:03:00;7.23;;;1.90;;
8626;SDS011;4351;51.422;6.794;2023-03-23T09:05:50;6.53;;;1.70;;
8626;SDS011;4351;51.422;6.794;2023-03-23T09:08:30;4.80;;;1.60;;
8626;SDS011;4351;51.422;6.794;2023-03-23T09:10:58;7.23;;;2.07;;
8626;SDS011;4351;51.422;6.794;2023-03-23T09:13:25;4.73;;;1.63;;
8626;SDS011;4351;51.422;6.794;2023-03-23T09:15:52;6.27;;;1.40;;
8626;SDS011;4351;51.422;6.794;2023-03-23T09:18:19;6.97;;;1.60;;
8626;SDS011;4351;51.422;6.794;2023-03-23T09:20:50;4.43;;;1.40;;
8626;SDS011;4351;51.422;6.794;2023-03-23T09:23:17;5.23;;;1.90;;
8626;SDS011;4351;51.422;6.794;2023-03-23T09:25:45;9.53;;;1.60;;
8626;SDS011;4351;51.422;6.794;2023-03-23T09:28:12;6.13;;;1.70;;
8626;SDS011;4351;51.422;6.794;2023-03-23T09:30:39;5.20;;;1.60;;
8626;SDS011;4351;51.422;6.794;2023-03-23T09:33:07;6.33;;;1.77;;
8626;SDS011;4351;51.422;6.794;2023-03-23T09:35:35;4.30;;;1.80;;
8626;SDS011;4351;51.422;6.794;2023-03-23T09:38:04;7.83;;;1.73;;
8626;SDS011;4351;51.422;6.794;2023-03-23T09:40:35;7.37;;;2.10;;
8626;SDS011;4351;51.422;6.794;2023-03-23T09:46:04;4.47;;;1.27;;
8626;SDS011;4351;51.422;6.794;2023-03-23T09:48:51;5.23;;;1.50;;
8626;SDS011;4351;51.422;6.794;2023-03-23T09:51:23;6.43;;;1.57;;
8626;SDS011;4351;51.422;6.794;2023-03-23T09:54:00;4.97;;;1.10;;
8626;SDS011;4351;51.422;6.794;2023-03-23T09:56:33;2.70;;;1.13;;
8626;SDS011;4351;51.422;6.794;2023-03-23T09:59:02;5.03;;;1.10;;
8626;SDS011;4351;51.422;6.794;2023-03-23T10:01:36;4.17;;;1.20;;
8626;SDS011;4351;51.422;6.794;2023-03-23T10:04:09;3.93;;;1.00;;
8626;SDS011;4351;51.422;6.794;2023-03-23T10:06:40;3.60;;;1.10;;
8626;SDS011;4351;51.422;6.794;2023-03-23T10:09:11;5.17;;;1.53;;
8626;SDS011;4351;51.422;6.794;2023-03-23T10:11:46;2.93;;;1.13;;
8626;SDS011;4351;51.422;6.794;2023-03-23T10:14:24;4.63;;;1.40;;
8626;SDS011;4351;51.422;6.794;2023-03-23T10:16:57;4.97;;;1.30;;
8626;SDS011;4351;51.422;6.794;2023-03-23T10:19:33;5.07;;;1.70;;
8626;SDS011;4351;51.422;6.794;2023-03-23T10:22:08;4.47;;;1.67;;
8626;SDS011;4351;51.422;6.794;2023-03-23T10:24:40;3.83;;;1.50;;
8626;SDS011;4351;51.422;6.794;2023-03-23T10:27:16;5.53;;;1.70;;
8626;SDS011;4351;51.422;6.794;2023-03-23T10:29:50;4.67;;;1.63;;
8626;SDS011;4351;51.422;6.794;2023-03-23T10:32:34;3.83;;;2.07;;
8626;SDS011;4351;51.422;6.794;2023-03-23T10:35:14;3.57;;;1.93;;
8626;SDS011;4351;51.422;6.794;2023-03-23T10:37:46;3.07;;;1.47;;
8626;SDS011;4351;51.422;6.794;2023-03-23T10:40:19;4.33;;;1.40;;
8626;SDS011;4351;51.422;6.794;2023-03-23T10:42:50;3.83;;;1.13;;
8626;SDS011;4351;51.422;6.794;2023-03-23T10:45:19;3.47;;;1.30;;
8626;SDS011;4351;51.422;6.794;2023-03-23T10:47:49;1.97;;;0.93;;
8626;SDS011;4351;51.422;6.794;2023-03-23T10:50:22;4.63;;;1.40;;
8626;SDS011;4351;51.422;6.794;2023-03-23T10:52:52;5.67;;;1.80;;
8626;SDS011;4351;51.422;6.794;2023-03-23T10:55:23;2.83;;;1.63;;
8626;SDS011;4351;51.422;6.794;2023-03-23T10:57:59;8.27;;;2.20;;
8626;SDS011;4351;51.422;6.794;2023-03-23T11:00:28;4.80;;;2.10;;
8626;SDS011;4351;51.422;6.794;2023-03-23T11:03:00;6.10;;;2.50;;
8626;SDS011;4351;51.422;6.794;2023-03-23T11:05:35;6.80;;;3.07;;
8626;SDS011;4351;51.422;6.794;2023-03-23T11:08:10;7.50;;;3.13;;
8626;SDS011;4351;51.422;6.794;2023-03-23T11:10:40;9.93;;;2.87;;
8626;SDS011;4351;51.422;6.794;2023-03-23T11:13:14;6.73;;;2.00;;
8626;SDS011;4351;51.422;6.794;2023-03-23T11:15:43;6.33;;;1.83;;
8626;SDS011;4351;51.422;6.794;2023-03-23T11:18:12;5.73;;;1.80;;
8626;SDS011;4351;51.422;6.794;2023-03-23T11:20:44;3.93;;;1.37;;
8626;SDS011;4351;51.422;6.794;2023-03-23T11:23:18;3.30;;;1.40;;
8626;SDS011;4351;51.422;6.794;2023-03-23T11:25:53;3.27;;;1.60;;
8626;SDS011;4351;51.422;6.794;2023-03-23T11:28:25;5.37;;;1.50;;
8626;SDS011;4351;51.422;6.794;2023-03-23T11:30:54;4.03;;;1.27;;
8626;SDS011;4351;51.422;6.794;2023-03-23T11:33:22;4.03;;;1.17;;
8626;SDS011;4351;51.422;6.794;2023-03-23T11:35:51;3.37;;;1.10;;
8626;SDS011;4351;51.422;6.794;2023-03-23T11:38:20;4.10;;;1.40;;
8626;SDS011;4351;51.422;6.794;2023-03-23T11:40:52;3.57;;;1.50;;
8626;SDS011;4351;51.422;6.794;2023-03-23T11:43:20;3.57;;;1.27;;
8626;SDS011;4351;51.422;6.794;2023-03-23T11:45:50;3.93;;;1.50;;
8626;SDS011;4351;51.422;6.794;2023-03-23T11:48:25;3.80;;;1.80;;
8626;SDS011;4351;51.422;6.794;2023-03-23T11:50:59;4.77;;;2.33;;
8626;SDS011;4351;51.422;6.794;2023-03-23T11:53:34;4.27;;;2.50;;
8626;SDS011;4351;51.422;6.794;2023-03-23T11:56:10;5.63;;;3.90;;
8626;SDS011;4351;51.422;6.794;2023-03-23T11:58:42;5.23;;;3.40;;
8626;SDS011;4351;51.422;6.794;2023-03-23T12:01:11;4.83;;;3.00;;
8626;SDS011;4351;51.422;6.794;2023-03-23T12:03:55;8.70;;;3.13;;
8626;SDS011;4351;51.422;6.794;2023-03-23T12:06:30;5.57;;;2.47;;
8626;SDS011;4351;51.422;6.794;2023-03-23T12:09:06;5.23;;;2.20;;
8626;SDS011;4351;51.422;6.794;2023-03-23T12:11:44;4.10;;;1.80;;
8626;SDS011;4351;51.422;6.794;2023-03-23T12:14:21;3.47;;;2.40;;
8626;SDS011;4351;51.422;6.794;2023-03-23T12:16:58;3.13;;;1.83;;
8626;SDS011;4351;51.422;6.794;2023-03-23T12:19:34;3.17;;;2.20;;
8626;SDS011;4351;51.422;6.794;2023-03-23T12:22:09;3.17;;;1.90;;
8626;SDS011;4351;51.422;6.794;2023-03-23T12:24:46;3.57;;;2.07;;
8626;SDS011;4351;51.422;6.794;2023-03-23T12:27:28;2.93;;;1.70;;
8626;SDS011;4351;51.422;6.794;2023-03-23T12:33:08;4.70;;;1.70;;
8626;SDS011;4351;51.422;6.794;2023-03-23T12:35:46;2.73;;;1.80;;
8626;SDS011;4351;51.422;6.794;2023-03-23T12:38:23;3.90;;;2.27;;
8626;SDS011;4351;51.422;6.794;2023-03-23T12:41:02;3.97;;;1.93;;
8626;SDS011;4351;51.422;6.794;2023-03-23T12:43:46;5.37;;;1.90;;
8626;SDS011;4351;51.422;6.794;2023-03-23T12:46:28;4.47;;;2.00;;
8626;SDS011;4351;51.422;6.794;2023-03-23T12:49:04;4.93;;;2.23;;
8626;SDS011;4351;51.422;6.794;2023-03-23T12:51:37;3.43;;;2.20;;
8626;SDS011;4351;51.422;6.794;2023-03-23T12:54:10;3.00;;;2.10;;
8626;SDS011;4351;51.422;6.794;2023-03-23T12:56:45;4.87;;;2.37;;
8626;SDS011;4351;51.422;6.794;2023-03-23T12:59:19;4.47;;;2.07;;
8626;SDS011;4351;51.422;6.794;2023-03-23T13:01:51;3.77;;;2.10;;
8626;SDS011;4351;51.422;6.794;2023-03-23T13:04:23;4.20;;;2.67;;
8626;SDS011;4351;51.422;6.794;2023-03-23T13:06:56;4.37;;;2.50;;
8626;SDS011;4351;51.422;6.794;2023-03-23T13:09:26;5.43;;;3.10;;
8626;SDS011;4351;51.422;6.794;2023-03-23T13:11:58;5.13;;;3.10;;
8626;SDS011;4351;51.422;6.794;2023-03-23T13:14:32;4.90;;;2.83;;
8626;SDS011;4351;51.422;6.794;2023-03-23T13:17:10;5.97;;;3.07;;
8626;SDS011;4351;51.422;6.794;2023-03-23T13:19:55;8.03;;;3.30;;
8626;SDS011;4351;51.422;6.794;2023-03-23T13:22:32;7.70;;;2.90;;
8626;SDS011;4351;51.422;6.794;2023-03-23T13:25:06;9.07;;;3.17;;
8626;SDS011;4351;51.422;6.794;2023-03-23T13:27:38;5.70;;;2.57;;
8626;SDS011;4351;51.422;6.794;2023-03-23T13:30:16;3.87;;;1.67;;
8626;SDS011;4351;51.422;6.794;2023-03-23T13:32:48;5.63;;;1.77;;
8626;SDS011;4351;51.422;6.794;2023-03-23T13:35:17;5.03;;;2.40;;
8626;SDS011;4351;51.422;6.794;2023-03-23T13:37:47;10.43;;;2.70;;
8626;SDS011;4351;51.422;6.794;2023-03-23T13:40:18;6.07;;;3.33;;
8626;SDS011;4351;51.422;6.794;2023-03-23T13:42:53;8.70;;;4.57;;
8626;SDS011;4351;51.422;6.794;2023-03-23T13:45:23;7.87;;;4.50;;
8626;SDS011;4351;51.422;6.794;2023-03-23T13:48:04;8.27;;;4.77;;
8626;SDS011;4351;51.422;6.794;2023-03-23T13:50:42;8.13;;;4.30;;
8626;SDS011;4351;51.422;6.794;2023-03-23T13:53:14;10.83;;;3.97;;
8626;SDS011;4351;51.422;6.794;2023-03-23T13:55:48;10.30;;;4.37;;
8626;SDS011;4351;51.422;6.794;2023-03-23T13:58:23;8.53;;;3.33;;
8626;SDS011;4351;51.422;6.794;2023-03-23T14:01:03;5.57;;;3.50;;
8626;SDS011;4351;51.422;6.794;2023-03-23T14:03:42;7.53;;;3.27;;
8626;SDS011;4351;51.422;6.794;2023-03-23T14:06:12;6.87;;;3.10;;
8626;SDS011;4351;51.422;6.794;2023-03-23T14:09:04;6.93;;;2.67;;
8626;SDS011;4351;51.422;6.794;2023-03-23T14:11:34;4.43;;;2.50;;
8626;SDS011;4351;51.422;6.794;2023-03-23T14:14:14;6.43;;;2.60;;
8626;SDS011;4351;51.422;6.794;2023-03-23T14:16:45;6.63;;;2.10;;
8626;SDS011;4351;51.422;6.794;2023-03-23T14:19:18;4.83;;;2.70;;
8626;SDS011;4351;51.422;6.794;2023-03-23T14:21:51;5.33;;;2.83;;
8626;SDS011;4351;51.422;6.794;2023-03-23T14:24:21;6.33;;;2.77;;
8626;SDS011;4351;51.422;6.794;2023-03-23T14:26:50;3.13;;;2.43;;
8626;SDS011;4351;51.422;6.794;2023-03-23T14:29:19;3.93;;;2.50;;
8626;SDS011;4351;51.422;6.794;2023-03-23T14:31:50;3.17;;;2.47;;
8626;SDS011;4351;51.422;6.794;2023-03-23T14:34:21;6.53;;;3.00;;
8626;SDS011;4351;51.422;6.794;2023-03-23T14:36:51;4.43;;;2.83;;
8626;SDS011;4351;51.422;6.794;2023-03-23T14:39:21;3.90;;;2.80;;
8626;SDS011;4351;51.422;6.794;2023-03-23T14:41:50;5.70;;;2.73;;
8626;SDS011;4351;51.422;6.794;2023-03-23T14:44:21;3.37;;;2.47;;
8626;SDS011;4351;51.422;6.794;2023-03-23T14:46:52;6.70;;;2.60;;
8626;SDS011;4351;51.422;6.794;2023-03-23T14:49:22;6.50;;;2.50;;
8626;SDS011;4351;51.422;6.794;2023-03-23T14:51:54;6.80;;;2.20;;
8626;SDS011;4351;51.422;6.794;2023-03-23T14:54:22;4.70;;;2.60;;
8626;SDS011;4351;51.422;6.794;2023-03-23T14:56:50;4.30;;;2.37;;
8626;SDS011;4351;51.422;6.794;2023-03-23T14:59:18;3.60;;;2.23;;
8626;SDS011;4351;51.422;6.794;2023-03-23T15:01:45;4.30;;;2.00;;
8626;SDS011;4351;51.422;6.794;2023-03-23T15:04:16;6.53;;;2.23;;
8626;SDS011;4351;51.422;6.794;2023-03-23T15:06:46;2.93;;;1.70;;
8626;SDS011;4351;51.422;6.794;2023-03-23T15:09:15;4.07;;;1.90;;
8626;SDS011;4351;51.422;6.794;2023-03-23T15:11:50;3.20;;;1.50;;
8626;SDS011;4351;51.422;6.794;2023-03-23T15:14:20;3.63;;;1.40;;
8626;SDS011;4351;51.422;6.794;2023-03-23T15:16:49;2.33;;;1.10;;
8626;SDS011;4351;51.422;6.794;2023-03-23T15:19:20;3.23;;;1.40;;
8626;SDS011;4351;51.422;6.794;2023-03-23T15:21:51;3.87;;;1.30;;
8626;SDS011;4351;51.422;6.794;2023-03-23T15:24:27;5.37;;;1.53;;
8626;SDS011;4351;51.422;6.794;2023-03-23T15:27:14;3.43;;;1.60;;
8626;SDS011;4351;51.422;6.794;2023-03-23T15:29:46;3.70;;;1.70;;
8626;SDS011;4351;51.422;6.794;2023-03-23T15:32:19;3.90;;;1.30;;
8626;SDS011;4351;51.422;6.794;2023-03-23T15:34:49;6.23;;;1.70;;
8626;SDS011;4351;51.422;6.794;2023-03-23T15:37:18;4.27;;;1.73;;
8626;SDS011;4351;51.422;6.794;2023-03-23T15:39:50;6.33;;;1.60;;
8626;SDS011;4351;51.422;6.794;2023-03-23T15:42:24;4.17;;;1.50;;
8626;SDS011;4351;51.422;6.794;2023-03-23T15:44:57;5.10;;;1.77;;
8626;SDS011;4351;51.422;6.794;2023-03-23T15:47:35;4.00;;;1.70;;
8626;SDS011;4351;51.422;6.794;2023-03-23T15:50:08;8.73;;;1.80;;
8626;SDS011;4351;51.422;6.794;2023-03-23T15:52:38;6.73;;;1.90;;
8626;SDS011;4351;51.422;6.794;2023-03-23T15:55:16;5.57;;;1.80;;
8626;SDS011;4351;51.422;6.794;2023-03-23T15:57:47;6.93;;;2.17;;
8626;SDS011;4351;51.422;6.794;2023-03-23T16:00:19;7.70;;;2.10;;
8626;SDS011;4351;51.422;6.794;2023-03-23T16:02:49;6.90;;;2.17;;